createdAt,value
2023-02-25T00:00:28.614Z,16.65
2023-02-25T00:03:02.312Z,16.77
2023-02-25T00:05:35.228Z,14.73
2023-02-25T00:08:08.523Z,17.37
2023-02-25T00:10:41.687Z,14.90
2023-02-25T00:13:18.427Z,15.68
2023-02-25T00:15:49.876Z,17.05
2023-02-25T00:18:22.985Z,14.30
2023-02-25T00:20:56.332Z,16.02
2023-02-25T00:23:29.325Z,11.73
2023-02-25T00:26:03.467Z,9.33
2023-02-25T00:28:37.421Z,11.80
2023-02-25T00:31:12.650Z,10.65
2023-02-25T00:33:46.596Z,15.15
2023-02-25T00:36:22.095Z,12.55
2023-02-25T00:38:57.541Z,14.68
2023-02-25T00:41:31.747Z,9.23
2023-02-25T00:44:05.068Z,13.00
2023-02-25T00:46:38.250Z,14.23
2023-02-25T00:49:15.056Z,15.60
2023-02-25T00:51:48.727Z,16.45
2023-02-25T00:54:23.642Z,12.90
2023-02-25T00:56:56.796Z,17.07
2023-02-25T00:59:29.692Z,15.75
2023-02-25T01:02:02.552Z,14.33
2023-02-25T01:04:35.685Z,14.03
2023-02-25T01:07:09.112Z,15.30
2023-02-25T01:09:42.262Z,16.45
2023-02-25T01:12:15.714Z,15.72
2023-02-25T01:14:49.338Z,14.18
2023-02-25T01:17:22.712Z,12.88
2023-02-25T01:19:57.407Z,16.40
2023-02-25T01:22:30.519Z,12.40
2023-02-25T01:25:05.981Z,14.65
2023-02-25T01:27:40.527Z,12.80
2023-02-25T01:30:15.019Z,12.45
2023-02-25T01:32:48.356Z,8.40
2023-02-25T01:35:21.848Z,12.33
2023-02-25T01:37:56.723Z,14.00
2023-02-25T01:40:31.236Z,15.53
2023-02-25T01:43:05.798Z,11.95
2023-02-25T01:45:41.815Z,12.90
2023-02-25T01:48:18.265Z,12.65
2023-02-25T01:50:54.140Z,13.32
2023-02-25T01:53:32.388Z,13.00
2023-02-25T01:56:06.577Z,11.48
2023-02-25T01:58:40.317Z,14.28
2023-02-25T02:01:16.326Z,11.33
2023-02-25T02:06:25.899Z,14.78
2023-02-25T02:09:00.137Z,15.53
2023-02-25T02:11:33.377Z,11.57
2023-02-25T02:14:07.898Z,12.30
2023-02-25T02:16:48.663Z,14.05
2023-02-25T02:19:29.202Z,10.38
2023-02-25T02:22:07.813Z,11.75
2023-02-25T02:25:07.965Z,16.32
2023-02-25T02:27:51.795Z,12.88
2023-02-25T02:30:43.172Z,14.47
2023-02-25T02:33:20.400Z,13.13
2023-02-25T02:35:57.236Z,14.45
2023-02-25T02:38:33.429Z,13.30
2023-02-25T02:41:10.092Z,12.98
2023-02-25T02:43:47.290Z,15.48
2023-02-25T02:46:23.982Z,15.60
2023-02-25T02:49:00.521Z,14.45
2023-02-25T02:51:36.919Z,9.83
2023-02-25T02:54:12.502Z,14.53
2023-02-25T02:56:48.113Z,14.03
2023-02-25T02:59:24.259Z,15.83
2023-02-25T03:04:43.774Z,16.55
2023-02-25T03:07:18.795Z,13.88
2023-02-25T03:09:54.295Z,13.00
2023-02-25T03:12:27.305Z,15.53
2023-02-25T03:15:00.898Z,14.30
2023-02-25T03:17:39.090Z,13.58
2023-02-25T03:20:16.775Z,12.30
2023-02-25T03:22:55.941Z,14.18
2023-02-25T03:25:32.026Z,14.28
2023-02-25T03:28:08.594Z,13.55
2023-02-25T03:30:44.602Z,13.60
2023-02-25T03:33:21.636Z,13.75
2023-02-25T03:35:57.574Z,13.30
2023-02-25T03:38:33.980Z,12.95
2023-02-25T03:41:12.343Z,15.32
2023-02-25T03:43:48.121Z,10.03
2023-02-25T03:46:23.410Z,10.63
2023-02-25T03:48:59.006Z,8.93
2023-02-25T03:51:34.952Z,12.70
2023-02-25T03:54:09.000Z,9.55
2023-02-25T03:56:47.899Z,12.00
2023-02-25T03:59:23.843Z,11.15
2023-02-25T04:01:58.788Z,11.85
2023-02-25T04:04:32.202Z,9.20
2023-02-25T04:07:05.318Z,12.15
2023-02-25T04:09:48.375Z,9.58
2023-02-25T04:12:35.819Z,13.18
2023-02-25T04:15:13.755Z,12.03
2023-02-25T04:17:46.975Z,11.80
2023-02-25T04:20:20.695Z,12.33
2023-02-25T04:22:53.774Z,13.68
2023-02-25T04:25:26.968Z,14.20
2023-02-25T04:27:59.996Z,10.93
2023-02-25T04:30:34.374Z,11.73
2023-02-25T04:33:08.351Z,12.23
2023-02-25T04:35:41.660Z,10.40
2023-02-25T04:38:14.886Z,11.50
2023-02-25T04:40:47.955Z,13.10
2023-02-25T04:43:21.045Z,9.03
2023-02-25T04:45:56.404Z,12.75
2023-02-25T04:48:29.562Z,11.95
2023-02-25T04:51:04.936Z,12.35
2023-02-25T04:53:38.187Z,11.00
2023-02-25T04:56:12.424Z,12.45
2023-02-25T04:58:46.103Z,15.45
2023-02-25T05:01:19.397Z,11.33
2023-02-25T05:03:54.955Z,13.60
2023-02-25T05:06:28.565Z,8.38
2023-02-25T05:09:02.251Z,10.75
2023-02-25T05:11:35.476Z,10.50
2023-02-25T05:14:08.588Z,12.47
2023-02-25T05:16:41.708Z,12.70
2023-02-25T05:19:19.527Z,10.38
2023-02-25T05:24:24.640Z,10.50
2023-02-25T05:26:58.229Z,10.65
2023-02-25T05:29:31.144Z,9.70
2023-02-25T05:32:04.882Z,7.90
2023-02-25T05:34:38.243Z,11.20
2023-02-25T05:37:11.249Z,8.23
2023-02-25T05:39:44.422Z,8.03
2023-02-25T05:42:17.780Z,12.18
2023-02-25T05:44:51.251Z,9.43
2023-02-25T05:47:24.527Z,11.57
2023-02-25T05:49:57.718Z,11.85
2023-02-25T05:52:30.892Z,11.68
2023-02-25T05:55:04.293Z,10.95
2023-02-25T05:57:37.178Z,12.53
2023-02-25T06:00:15.294Z,9.40
2023-02-25T06:02:49.072Z,12.70
2023-02-25T06:05:22.374Z,5.15
2023-02-25T06:07:55.871Z,8.90
2023-02-25T06:10:29.900Z,10.80
2023-02-25T06:13:04.335Z,9.48
2023-02-25T06:15:41.519Z,10.95
2023-02-25T06:18:18.115Z,8.23
2023-02-25T06:20:55.273Z,9.75
2023-02-25T06:23:32.036Z,10.13
2023-02-25T06:26:14.470Z,9.05
2023-02-25T06:28:50.393Z,15.00
2023-02-25T06:31:28.608Z,9.88
2023-02-25T06:34:18.415Z,12.63
2023-02-25T06:36:52.899Z,10.53
2023-02-25T06:39:26.465Z,10.78
2023-02-25T06:41:59.562Z,9.23
2023-02-25T06:44:34.072Z,8.55
2023-02-25T06:47:07.136Z,9.03
2023-02-25T06:49:40.352Z,9.00
2023-02-25T06:52:13.326Z,9.35
2023-02-25T06:57:27.266Z,8.23
2023-02-25T07:00:05.370Z,9.58
2023-02-25T07:02:38.861Z,7.47
2023-02-25T07:05:12.800Z,7.75
2023-02-25T07:07:45.781Z,7.62
2023-02-25T07:10:19.188Z,6.00
2023-02-25T07:15:32.604Z,6.67
2023-02-25T07:18:06.749Z,9.00
2023-02-25T07:20:40.389Z,9.10
2023-02-25T07:23:13.567Z,7.55
2023-02-25T07:25:46.829Z,8.45
2023-02-25T07:28:20.147Z,9.95
2023-02-25T07:30:53.619Z,6.37
2023-02-25T07:33:26.998Z,8.85
2023-02-25T07:36:00.243Z,6.85
2023-02-25T07:38:33.338Z,10.28
2023-02-25T07:41:11.193Z,6.58
2023-02-25T07:46:16.237Z,4.90
2023-02-25T07:48:49.641Z,9.03
2023-02-25T07:51:25.257Z,8.55
2023-02-25T07:54:00.681Z,8.00
2023-02-25T07:56:34.162Z,6.83
2023-02-25T07:59:07.226Z,6.42
2023-02-25T08:01:40.615Z,9.65
2023-02-25T08:04:14.127Z,8.83
2023-02-25T08:06:47.551Z,9.45
2023-02-25T08:09:20.868Z,9.88
2023-02-25T08:11:54.176Z,8.40
2023-02-25T08:14:27.388Z,10.32
2023-02-25T08:17:02.174Z,7.17
2023-02-25T08:19:35.234Z,8.83
2023-02-25T08:22:10.781Z,8.20
2023-02-25T08:24:43.772Z,7.87
2023-02-25T08:27:16.755Z,7.42
2023-02-25T08:29:49.870Z,7.28
2023-02-25T08:32:24.792Z,8.03
2023-02-25T08:34:58.145Z,9.68
2023-02-25T08:37:31.346Z,8.70
2023-02-25T08:40:10.000Z,8.20
2023-02-25T08:42:43.332Z,9.73
2023-02-25T08:45:16.569Z,9.68
2023-02-25T08:47:49.654Z,8.95
2023-02-25T08:50:24.002Z,9.75
2023-02-25T08:52:57.960Z,9.05
2023-02-25T08:55:30.997Z,10.40
2023-02-25T08:58:04.302Z,11.12
2023-02-25T09:00:37.950Z,11.12
2023-02-25T09:03:11.071Z,9.68
2023-02-25T09:05:44.223Z,9.30
2023-02-25T09:08:20.441Z,11.35
2023-02-25T09:10:53.497Z,10.23
2023-02-25T09:13:26.740Z,11.33
2023-02-25T09:16:02.369Z,8.90
2023-02-25T09:18:35.982Z,9.35
2023-02-25T09:21:10.990Z,9.80
2023-02-25T09:23:44.611Z,8.15
2023-02-25T09:26:17.794Z,9.03
2023-02-25T09:28:51.394Z,8.48
2023-02-25T09:31:25.268Z,9.70
2023-02-25T09:33:59.120Z,10.65
2023-02-25T09:36:34.085Z,11.10
2023-02-25T09:39:09.801Z,9.13
2023-02-25T09:41:48.603Z,9.55
2023-02-25T09:44:24.889Z,9.98
2023-02-25T09:47:00.982Z,8.33
2023-02-25T09:49:38.180Z,9.20
2023-02-25T09:52:17.024Z,9.38
2023-02-25T09:54:52.684Z,9.48
2023-02-25T09:57:26.378Z,9.48
2023-02-25T10:00:00.390Z,6.55
2023-02-25T10:02:39.419Z,8.48
2023-02-25T10:05:26.685Z,7.85
2023-02-25T10:08:06.678Z,9.45
2023-02-25T10:10:46.865Z,7.70
2023-02-25T10:13:27.347Z,7.70
2023-02-25T10:16:06.424Z,7.53
2023-02-25T10:18:47.633Z,7.22
2023-02-25T10:21:27.131Z,7.33
2023-02-25T10:24:29.490Z,7.55
2023-02-25T10:27:07.607Z,8.20
2023-02-25T10:29:45.973Z,9.03
2023-02-25T10:32:23.350Z,9.08
2023-02-25T10:34:59.753Z,8.80
2023-02-25T10:37:37.737Z,9.18
2023-02-25T10:42:59.761Z,9.23
2023-02-25T10:45:33.786Z,8.88
2023-02-25T10:48:10.502Z,6.67
2023-02-25T10:50:46.244Z,7.87
2023-02-25T10:53:19.893Z,8.10
2023-02-25T10:55:55.055Z,7.85
2023-02-25T10:58:35.194Z,7.10
2023-02-25T11:01:15.803Z,8.25
2023-02-25T11:03:59.121Z,8.10
2023-02-25T11:06:35.546Z,8.40
2023-02-25T11:09:13.727Z,8.88
2023-02-25T11:11:55.123Z,8.00
2023-02-25T11:14:31.042Z,7.78
2023-02-25T11:17:09.407Z,7.35
2023-02-25T11:19:44.641Z,6.15
2023-02-25T11:22:22.872Z,8.60
2023-02-25T11:25:02.489Z,7.83
2023-02-25T11:27:39.584Z,8.03
2023-02-25T11:30:24.436Z,6.55
2023-02-25T11:32:59.503Z,5.25
2023-02-25T11:35:36.008Z,6.80
2023-02-25T11:38:18.204Z,7.95
2023-02-25T11:40:51.442Z,6.67
2023-02-25T11:43:27.477Z,6.90
2023-02-25T11:46:04.209Z,5.42
2023-02-25T11:48:43.000Z,4.72
2023-02-25T11:51:21.498Z,6.75
2023-02-25T11:54:04.802Z,6.85
2023-02-25T11:56:40.393Z,8.53
2023-02-25T11:59:26.005Z,8.30
2023-02-25T12:05:43.618Z,8.50
2023-02-25T12:08:39.097Z,9.18
2023-02-25T12:11:45.199Z,8.43
2023-02-25T12:15:06.310Z,8.33
2023-02-25T12:17:58.442Z,7.12
2023-02-25T12:20:56.564Z,8.73
2023-02-25T12:24:12.662Z,10.03
2023-02-25T12:27:10.618Z,8.63
2023-02-25T12:30:21.085Z,9.63
2023-02-25T12:33:06.418Z,8.53
2023-02-25T12:36:04.884Z,6.47
2023-02-25T12:39:11.727Z,7.35
2023-02-25T12:41:48.705Z,8.25
2023-02-25T12:44:58.355Z,7.93
2023-02-25T12:47:48.978Z,7.08
2023-02-25T12:53:38.588Z,6.90
2023-02-25T12:56:24.263Z,8.25
2023-02-25T12:59:25.038Z,5.47
2023-02-25T13:02:21.988Z,7.90
2023-02-25T13:05:05.581Z,6.15
2023-02-25T13:08:22.866Z,7.03
2023-02-25T13:14:11.023Z,7.70
2023-02-25T13:16:54.633Z,8.58
2023-02-25T13:19:41.261Z,8.70
2023-02-25T13:22:24.731Z,5.70
2023-02-25T13:25:01.608Z,5.95
2023-02-25T13:28:14.992Z,7.83
2023-02-25T13:34:01.349Z,9.75
2023-02-25T13:36:42.522Z,7.90
2023-02-25T13:39:38.303Z,9.15
2023-02-25T13:42:43.272Z,7.47
2023-02-25T13:45:54.774Z,8.08
2023-02-25T13:48:41.335Z,8.65
2023-02-25T13:51:43.408Z,6.28
2023-02-25T13:54:37.113Z,7.83
2023-02-25T13:57:18.364Z,8.23
2023-02-25T14:00:07.208Z,5.58
2023-02-25T14:03:05.578Z,6.58
2023-02-25T14:05:52.672Z,6.73
2023-02-25T14:08:46.502Z,6.80
2023-02-25T14:12:12.990Z,7.80
2023-02-25T14:15:05.249Z,7.35
2023-02-25T14:17:49.291Z,7.37
2023-02-25T14:20:31.330Z,8.15
2023-02-25T14:23:08.092Z,8.05
2023-02-25T14:25:47.032Z,6.43
2023-02-25T14:28:24.845Z,7.92
2023-02-25T14:31:05.872Z,7.37
2023-02-25T14:34:10.230Z,7.92
2023-02-25T14:36:55.129Z,8.93
2023-02-25T14:39:39.879Z,5.08
2023-02-25T14:42:21.543Z,5.30
2023-02-25T14:44:57.820Z,6.55
2023-02-25T14:47:34.215Z,8.28
2023-02-25T14:50:10.642Z,5.95
2023-02-25T14:53:39.301Z,5.67
2023-02-25T15:00:05.178Z,8.00
2023-02-25T15:05:35.383Z,7.05
2023-02-25T15:11:42.825Z,7.80
2023-02-25T15:14:48.900Z,8.78
2023-02-25T15:17:53.447Z,7.65
2023-02-25T15:20:35.350Z,6.70
2023-02-25T15:23:13.945Z,9.28
2023-02-25T15:25:53.006Z,9.68
2023-02-25T15:28:46.765Z,10.03
2023-02-25T15:31:38.767Z,9.15
2023-02-25T15:34:37.833Z,14.33
2023-02-25T15:37:47.075Z,9.53
2023-02-25T15:40:45.476Z,10.38
2023-02-25T15:43:44.519Z,8.65
2023-02-25T15:49:34.546Z,10.98
2023-02-25T15:52:10.931Z,11.85
2023-02-25T15:54:52.600Z,11.03
2023-02-25T15:57:42.060Z,13.10
2023-02-25T16:01:07.254Z,13.32
2023-02-25T16:03:44.904Z,13.05
2023-02-25T16:06:21.741Z,13.05
2023-02-25T16:08:58.344Z,13.03
2023-02-25T16:11:36.411Z,13.28
2023-02-25T16:14:14.406Z,11.85
2023-02-25T16:16:50.785Z,13.98
2023-02-25T16:19:26.751Z,13.05
2023-02-25T16:22:04.109Z,14.65
2023-02-25T16:24:38.849Z,15.27
2023-02-25T16:27:16.312Z,10.82
2023-02-25T16:29:55.566Z,9.93
2023-02-25T16:32:34.368Z,8.98
2023-02-25T16:37:55.751Z,15.30
2023-02-25T16:40:31.894Z,10.65
2023-02-25T16:43:05.898Z,11.20
2023-02-25T16:45:41.952Z,10.68
2023-02-25T16:48:20.400Z,12.40
2023-02-25T16:50:54.752Z,10.05
2023-02-25T16:53:29.741Z,9.78
2023-02-25T16:56:03.374Z,16.25
2023-02-25T16:58:36.724Z,13.62
2023-02-25T17:01:15.130Z,14.25
2023-02-25T17:03:49.236Z,15.68
2023-02-25T17:06:23.666Z,15.30
2023-02-25T17:08:56.997Z,19.27
2023-02-25T17:11:30.429Z,21.93
2023-02-25T17:14:05.970Z,21.65
2023-02-25T17:16:43.756Z,14.15
2023-02-25T17:21:53.597Z,23.35
2023-02-25T17:24:29.540Z,23.25
2023-02-25T17:27:03.478Z,18.73
2023-02-25T17:29:38.541Z,19.27
2023-02-25T17:32:25.324Z,18.60
2023-02-25T17:35:01.240Z,18.37
2023-02-25T17:37:35.190Z,15.63
2023-02-25T17:40:11.672Z,16.35
2023-02-25T17:42:46.360Z,14.50
2023-02-25T17:45:46.697Z,17.32
2023-02-25T17:48:22.241Z,19.17
2023-02-25T17:50:57.784Z,12.78
2023-02-25T17:53:42.983Z,13.98
2023-02-25T17:56:21.251Z,14.90
2023-02-25T17:58:56.334Z,20.57
2023-02-25T18:01:31.598Z,17.15
2023-02-25T18:04:07.096Z,17.05
2023-02-25T18:06:45.064Z,16.45
2023-02-25T18:09:41.106Z,14.60
2023-02-25T18:15:16.006Z,14.58
2023-02-25T18:17:53.185Z,16.15
2023-02-25T18:20:31.916Z,14.60
2023-02-25T18:23:06.322Z,14.53
2023-02-25T18:25:41.488Z,19.95
2023-02-25T18:28:17.358Z,17.82
2023-02-25T18:30:52.590Z,16.77
2023-02-25T18:33:25.818Z,21.70
2023-02-25T18:35:59.318Z,15.72
2023-02-25T18:38:37.274Z,19.20
2023-02-25T18:41:12.132Z,20.45
2023-02-25T18:43:45.387Z,22.30
2023-02-25T18:46:18.437Z,26.25
2023-02-25T18:48:58.464Z,22.82
2023-02-25T18:51:31.664Z,19.23
2023-02-25T18:54:05.609Z,19.42
2023-02-25T18:56:39.255Z,22.27
2023-02-25T18:59:12.583Z,21.20
2023-02-25T19:01:49.537Z,17.20
2023-02-25T19:04:27.078Z,24.18
2023-02-25T19:07:07.927Z,23.62
2023-02-25T19:09:41.871Z,22.22
2023-02-25T19:12:29.950Z,16.67
2023-02-25T19:15:19.626Z,22.60
2023-02-25T19:17:53.182Z,24.35
2023-02-25T19:20:26.906Z,24.18
2023-02-25T19:23:00.180Z,25.10
2023-02-25T19:25:36.852Z,27.10
2023-02-25T19:28:11.092Z,22.85
2023-02-25T19:30:45.356Z,20.35
2023-02-25T19:33:18.605Z,22.02
2023-02-25T19:35:51.494Z,20.85
2023-02-25T19:38:24.761Z,22.05
2023-02-25T19:41:02.622Z,21.05
2023-02-25T19:46:11.284Z,25.17
2023-02-25T19:48:44.469Z,26.05
2023-02-25T19:51:17.928Z,18.62
2023-02-25T19:53:51.062Z,19.27
2023-02-25T19:56:24.525Z,19.23
2023-02-25T19:59:00.188Z,19.98
2023-02-25T20:01:33.412Z,14.38
2023-02-25T20:04:06.789Z,28.52
2023-02-25T20:06:40.329Z,19.87
2023-02-25T20:09:13.495Z,17.48
2023-02-25T20:11:47.292Z,18.30
2023-02-25T20:14:20.332Z,16.60
2023-02-25T20:16:53.816Z,19.90
2023-02-25T20:19:28.159Z,17.27
2023-02-25T20:22:06.521Z,20.82
2023-02-25T20:24:39.911Z,23.38
2023-02-25T20:27:15.970Z,24.82
2023-02-25T20:29:49.226Z,16.12
2023-02-25T20:32:22.607Z,19.05
2023-02-25T20:34:56.634Z,15.15
2023-02-25T20:37:35.382Z,14.80
2023-02-25T20:40:12.186Z,16.00
2023-02-25T20:42:45.988Z,16.15
2023-02-25T20:45:21.006Z,19.77
2023-02-25T20:47:54.940Z,13.48
2023-02-25T20:50:30.401Z,15.90
2023-02-25T20:53:04.386Z,16.23
2023-02-25T20:55:38.534Z,17.37
2023-02-25T20:58:12.359Z,15.18
2023-02-25T21:00:45.578Z,15.85
2023-02-25T21:03:18.743Z,17.20
2023-02-25T21:05:51.954Z,13.62
2023-02-25T21:08:25.188Z,12.37
2023-02-25T21:11:00.903Z,14.75
2023-02-25T21:13:36.291Z,12.23
2023-02-25T21:16:10.537Z,13.53
2023-02-25T21:18:44.851Z,13.08
2023-02-25T21:21:21.207Z,14.20
2023-02-25T21:23:54.549Z,13.50
2023-02-25T21:26:27.406Z,14.05
2023-02-25T21:29:00.802Z,13.48
2023-02-25T21:31:34.172Z,14.75
2023-02-25T21:34:09.305Z,16.35
2023-02-25T21:36:42.735Z,14.47
2023-02-25T21:39:17.273Z,12.45
2023-02-25T21:41:50.492Z,17.75
2023-02-25T21:44:23.659Z,15.50
2023-02-25T21:46:58.295Z,14.38
2023-02-25T21:49:31.888Z,19.73
2023-02-25T21:52:05.564Z,17.00
2023-02-25T21:54:38.774Z,12.05
2023-02-25T21:57:11.841Z,19.73
2023-02-25T21:59:44.872Z,19.00
2023-02-25T22:02:17.976Z,18.95
2023-02-25T22:04:51.109Z,16.80
2023-02-25T22:07:24.160Z,21.95
2023-02-25T22:09:57.753Z,19.17
2023-02-25T22:12:30.932Z,30.48
2023-02-25T22:15:04.134Z,18.77
2023-02-25T22:17:37.297Z,19.80
2023-02-25T22:20:13.117Z,20.10
2023-02-25T22:22:46.256Z,23.62
2023-02-25T22:25:20.295Z,22.73
2023-02-25T22:27:53.341Z,21.40
2023-02-25T22:30:26.769Z,22.17
2023-02-25T22:32:59.825Z,22.90
2023-02-25T22:35:32.880Z,27.17
2023-02-25T22:38:06.011Z,18.95
2023-02-25T22:40:39.781Z,19.23
2023-02-25T22:43:12.958Z,21.07
2023-02-25T22:45:46.226Z,24.52
2023-02-25T22:48:19.370Z,19.92
2023-02-25T22:50:52.795Z,17.17
2023-02-25T22:53:26.015Z,21.25
2023-02-25T22:56:02.529Z,16.40
2023-02-25T22:58:37.071Z,18.48
2023-02-25T23:01:11.202Z,19.62
2023-02-25T23:03:44.537Z,19.20
2023-02-25T23:06:20.316Z,16.20
2023-02-25T23:08:53.955Z,23.07
2023-02-25T23:11:28.581Z,19.77
2023-02-25T23:14:04.262Z,14.23
2023-02-25T23:16:40.494Z,19.50
2023-02-25T23:19:16.516Z,17.32
2023-02-25T23:21:51.082Z,16.48
2023-02-25T23:24:24.149Z,20.23
2023-02-25T23:26:58.558Z,20.00
2023-02-25T23:29:31.477Z,16.32
2023-02-25T23:32:04.850Z,18.67
2023-02-25T23:34:38.168Z,19.05
2023-02-25T23:37:11.478Z,17.82
2023-02-25T23:39:44.647Z,21.00
2023-02-25T23:42:17.672Z,15.25
2023-02-25T23:44:51.140Z,17.80
2023-02-25T23:47:24.324Z,13.10
2023-02-25T23:49:57.786Z,15.75
2023-02-25T23:52:30.978Z,18.37
2023-02-25T23:55:05.739Z,15.10
2023-02-25T23:57:39.439Z,14.75
